Time,TemperatureF,DewpointF,PressureIn,WindDirection,WindDirectionDegrees,WindSpeedMPH,WindSpeedGustMPH,Humidity,HourlyPrecipIn,Conditions,Clouds,dailyrainin,SoftwareType,DateUTC
2013-04-12 00:14:00,29.0,18.0,29.80,WSW,238,0.0,3.0,64,0.00,,,0.00,weatherlink.com 1.10,2013-04-12 06:14:00,
2013-04-12 00:29:00,29.3,18.0,29.80,SW,223,0.0,2.0,63,0.00,,,0.00,weatherlink.com 1.10,2013-04-12 06:29:00,
2013-04-12 00:44:00,29.4,18.0,29.81,SW,236,0.0,2.0,63,0.00,,,0.00,weatherlink.com 1.10,2013-04-12 06:44:00,
2013-04-12 00:59:00,29.5,18.0,29.81,WSW,253,0.0,1.0,63,0.00,,,0.00,weatherlink.com 1.10,2013-04-12 06:59:00,
2013-04-12 01:15:00,28.9,18.0,29.80,WSW,253,0.0,1.0,65,0.00,,,0.00,weatherlink.com 1.10,2013-04-12 07:15:00,
2013-04-12 01:30:00,29.1,19.0,29.80,WSW,253,0.0,1.0,65,0.00,,,0.00,weatherlink.com 1.10,2013-04-12 07:30:00,
2013-04-12 01:45:00,29.2,19.0,29.80,WSW,250,0.0,1.0,65,0.00,,,0.00,weatherlink.com 1.10,2013-04-12 07:45:00,
2013-04-12 02:00:00,29.6,19.0,29.80,WSW,242,0.0,2.0,64,0.00,,,0.00,weatherlink.com 1.10,2013-04-12 08:00:00,
2013-04-12 02:15:00,29.8,19.0,29.79,WSW,246,0.0,2.0,64,0.00,,,0.00,weatherlink.com 1.10,2013-04-12 08:15:00,
2013-04-12 02:30:00,29.9,19.0,29.79,West,263,0.0,0.0,64,0.00,,,0.00,weatherlink.com 1.10,2013-04-12 08:30:00,
2013-04-12 02:45:00,29.8,19.0,29.78,SW,220,0.0,2.0,65,0.00,,,0.00,weatherlink.com 1.10,2013-04-12 08:45:00,
2013-04-12 03:00:00,29.5,19.0,29.77,South,186,0.0,3.0,65,0.00,,,0.00,weatherlink.com 1.10,2013-04-12 09:00:00,
2013-04-12 03:15:00,29.1,19.0,29.77,South,180,0.0,2.0,66,0.00,,,0.00,weatherlink.com 1.10,2013-04-12 09:15:00,
2013-04-12 03:30:00,28.3,19.0,29.77,SSE,165,0.0,4.0,68,0.00,,,0.00,weatherlink.com 1.10,2013-04-12 09:30:00,
2013-04-12 03:45:00,27.8,19.0,29.77,SW,224,0.0,3.0,70,0.00,,,0.00,weatherlink.com 1.10,2013-04-12 09:45:00,
2013-04-12 04:00:00,27.3,19.0,29.76,SW,232,0.0,3.0,72,0.00,,,0.00,weatherlink.com 1.10,2013-04-12 10:00:00,
2013-04-12 04:15:00,27.3,20.0,29.77,WSW,254,0.0,3.0,73,0.00,,,0.00,weatherlink.com 1.10,2013-04-12 10:15:00,
2013-04-12 04:30:00,27.0,20.0,29.76,SSW,198,0.0,3.0,74,0.00,,,0.00,weatherlink.com 1.10,2013-04-12 10:30:00,
2013-04-12 04:45:00,26.5,20.0,29.75,South,173,0.0,4.0,75,0.00,,,0.00,weatherlink.com 1.10,2013-04-12 10:45:00,
2013-04-12 05:00:00,26.8,20.0,29.75,SW,225,1.0,7.0,76,0.00,,,0.00,weatherlink.com 1.10,2013-04-12 11:00:00,
2013-04-12 05:15:00,27.1,20.0,29.74,SSW,208,0.0,5.0,73,0.00,,,0.00,weatherlink.com 1.10,2013-04-12 11:15:00,
2013-04-12 05:30:00,27.1,20.0,29.73,WSW,250,1.0,3.0,73,0.00,,,0.00,weatherlink.com 1.10,2013-04-12 11:30:00,
2013-04-12 05:45:00,26.7,19.0,29.73,SW,235,0.0,4.0,74,0.00,,,0.00,weatherlink.com 1.10,2013-04-12 11:45:00,
2013-04-12 06:00:00,26.6,19.0,29.73,SW,221,0.0,5.0,74,0.00,,,0.00,weatherlink.com 1.10,2013-04-12 12:00:00,
2013-04-12 06:16:00,26.5,19.0,29.73,SSW,204,0.0,3.0,74,0.00,,,0.00,weatherlink.com 1.10,2013-04-12 12:16:00,
2013-04-12 06:31:00,26.2,19.0,29.74,WSW,253,0.0,3.0,75,0.00,,,0.00,weatherlink.com 1.10,2013-04-12 12:31:00,
2013-04-12 06:46:00,26.3,19.0,29.75,South,180,0.0,3.0,75,0.00,,,0.00,weatherlink.com 1.10,2013-04-12 12:46:00,
2013-04-12 07:01:00,26.4,20.0,29.75,WSW,244,1.0,4.0,76,0.00,,,0.00,weatherlink.com 1.10,2013-04-12 13:01:00,
2013-04-12 07:16:00,27.1,20.0,29.75,WSW,244,0.0,6.0,74,0.00,,,0.00,weatherlink.com 1.10,2013-04-12 13:16:00,
2013-04-12 07:31:00,28.2,20.0,29.76,WSW,246,0.0,4.0,72,0.00,,,0.00,weatherlink.com 1.10,2013-04-12 13:31:00,
2013-04-12 07:46:00,29.4,20.0,29.75,West,269,0.0,4.0,69,0.00,,,0.00,weatherlink.com 1.10,2013-04-12 13:46:00,
2013-04-12 08:01:00,30.8,20.0,29.75,SW,231,0.0,6.0,65,0.00,,,0.00,weatherlink.com 1.10,2013-04-12 14:01:00,
2013-04-12 08:16:00,32.0,21.0,29.75,South,190,0.0,8.0,63,0.00,,,0.00,weatherlink.com 1.10,2013-04-12 14:16:00,
2013-04-12 08:31:00,32.9,21.0,29.76,South,182,0.0,5.0,62,0.00,,,0.00,weatherlink.com 1.10,2013-04-12 14:31:00,
2013-04-12 08:46:00,33.7,21.0,29.76,South,184,0.0,3.0,59,0.00,,,0.00,weatherlink.com 1.10,2013-04-12 14:46:00,
2013-04-12 09:01:00,34.5,20.0,29.76,WSW,251,0.0,10.0,55,0.00,,,0.00,weatherlink.com 1.10,2013-04-12 15:01:00,
2013-04-12 09:16:00,35.4,20.0,29.76,SSW,206,1.0,11.0,54,0.00,,,0.00,weatherlink.com 1.10,2013-04-12 15:16:00,
2013-04-12 09:31:00,36.3,20.0,29.75,South,178,4.0,7.0,52,0.00,,,0.00,weatherlink.com 1.10,2013-04-12 15:31:00,
2013-04-12 09:46:00,37.3,20.0,29.75,WSW,240,0.0,8.0,50,0.00,,,0.00,weatherlink.com 1.10,2013-04-12 15:46:00,
2013-04-12 10:01:00,38.8,19.0,29.75,WSW,248,0.0,6.0,45,0.00,,,0.00,weatherlink.com 1.10,2013-04-12 16:01:00,
2013-04-12 10:17:00,39.5,21.0,29.74,WSW,242,5.0,8.0,48,0.00,,,0.00,weatherlink.com 1.10,2013-04-12 16:17:00,
2013-04-12 10:32:00,40.7,20.0,29.75,South,188,0.0,10.0,44,0.00,,,0.00,weatherlink.com 1.10,2013-04-12 16:32:00,
2013-04-12 10:47:00,41.9,22.0,29.75,WSW,237,3.0,8.0,45,0.00,,,0.00,weatherlink.com 1.10,2013-04-12 16:47:00,
2013-04-12 11:02:00,42.2,21.0,29.76,WSW,254,0.0,7.0,43,0.00,,,0.00,weatherlink.com 1.10,2013-04-12 17:02:00,
2013-04-12 11:32:00,41.2,20.0,29.77,WSW,253,0.0,6.0,42,0.00,,,0.00,weatherlink.com 1.10,2013-04-12 17:32:00,
2013-04-12 11:48:00,40.4,18.0,29.77,West,263,1.0,9.0,40,0.00,,,0.00,weatherlink.com 1.10,2013-04-12 17:48:00,
2013-04-12 12:02:00,41.3,16.0,29.77,WNW,284,1.0,10.0,36,0.00,,,0.00,weatherlink.com 1.10,2013-04-12 18:02:00,
2013-04-12 13:33:00,43.2,18.0,29.77,West,261,5.0,14.0,36,0.00,,,0.00,weatherlink.com 1.10,2013-04-12 19:33:00,
2013-04-12 13:48:00,43.5,17.0,29.78,WNW,284,13.0,17.0,35,0.00,,,0.00,weatherlink.com 1.10,2013-04-12 19:48:00,
2013-04-12 14:03:00,42.5,16.0,29.77,North,9,6.0,15.0,34,0.00,,,0.00,weatherlink.com 1.10,2013-04-12 20:03:00,
2013-04-12 14:18:00,41.5,19.0,29.78,WSW,246,6.0,15.0,40,0.00,,,0.00,weatherlink.com 1.10,2013-04-12 20:18:00,
2013-04-12 14:33:00,42.5,16.0,29.77,NW,323,9.0,14.0,35,0.00,,,0.00,weatherlink.com 1.10,2013-04-12 20:33:00,
2013-04-12 14:48:00,43.5,15.0,29.77,West,279,8.0,16.0,32,0.00,,,0.00,weatherlink.com 1.10,2013-04-12 20:48:00,
2013-04-12 15:03:00,41.8,14.0,29.77,WSW,246,9.0,16.0,33,0.00,,,0.00,weatherlink.com 1.10,2013-04-12 21:03:00,
2013-04-12 15:18:00,42.3,16.0,29.77,NNW,331,1.0,10.0,35,0.00,,,0.00,weatherlink.com 1.10,2013-04-12 21:18:00,
2013-04-12 15:33:00,43.0,15.0,29.77,WNW,295,3.0,11.0,32,0.00,,,0.00,weatherlink.com 1.10,2013-04-12 21:33:00,
2013-04-12 15:48:00,42.1,13.0,29.77,WNW,292,1.0,11.0,30,0.00,,,0.00,weatherlink.com 1.10,2013-04-12 21:48:00,
2013-04-12 16:03:00,40.9,14.0,29.77,West,275,0.0,11.0,33,0.00,,,0.00,weatherlink.com 1.10,2013-04-12 22:03:00,
2013-04-12 16:18:00,42.2,13.0,29.77,NNW,345,0.0,10.0,30,0.00,,,0.00,weatherlink.com 1.10,2013-04-12 22:18:00,
2013-04-12 16:36:00,43.6,12.0,29.77,WNW,295,4.0,11.0,28,0.00,,,0.00,weatherlink.com 1.10,2013-04-12 22:36:00,
2013-04-12 16:48:00,41.9,12.0,29.77,WNW,293,3.0,14.0,30,0.00,,,0.00,weatherlink.com 1.10,2013-04-12 22:48:00,
2013-04-12 17:03:00,40.6,10.0,29.77,NW,314,3.0,10.0,29,0.00,,,0.00,weatherlink.com 1.10,2013-04-12 23:03:00,
2013-04-12 17:18:00,40.8,14.0,29.78,NW,307,7.0,12.0,34,0.00,,,0.00,weatherlink.com 1.10,2013-04-12 23:18:00,
2013-04-12 17:33:00,41.1,13.0,29.78,WNW,287,2.0,14.0,32,0.00,,,0.00,weatherlink.com 1.10,2013-04-12 23:33:00,
2013-04-12 17:48:00,40.7,14.0,29.78,NNW,332,5.0,11.0,33,0.00,,,0.00,weatherlink.com 1.10,2013-04-12 23:48:00,
2013-04-12 18:03:00,40.9,14.0,29.78,NNW,343,9.0,10.0,33,0.00,,,0.00,weatherlink.com 1.10,2013-04-13 00:03:00,
2013-04-12 18:18:00,40.5,14.0,29.79,West,267,0.0,9.0,34,0.00,,,0.00,weatherlink.com 1.10,2013-04-13 00:18:00,
2013-04-12 18:33:00,40.0,14.0,29.79,West,268,0.0,9.0,34,0.00,,,0.00,weatherlink.com 1.10,2013-04-13 00:33:00,
2013-04-12 18:48:00,39.4,13.0,29.79,WSW,254,4.0,8.0,34,0.00,,,0.00,weatherlink.com 1.10,2013-04-13 00:48:00,
2013-04-12 19:03:00,38.9,13.0,29.79,West,275,0.0,6.0,34,0.00,,,0.00,weatherlink.com 1.10,2013-04-13 01:03:00,
2013-04-12 19:19:00,38.0,14.0,29.80,West,261,2.0,8.0,37,0.00,,,0.00,weatherlink.com 1.10,2013-04-13 01:19:00,
2013-04-12 19:33:00,37.1,13.0,29.79,WNW,300,0.0,5.0,37,0.00,,,0.00,weatherlink.com 1.10,2013-04-13 01:33:00,
2013-04-12 19:48:00,35.8,14.0,29.80,WSW,239,0.0,2.0,41,0.00,,,0.00,weatherlink.com 1.10,2013-04-13 01:48:00,
2013-04-12 20:03:00,34.4,13.0,29.81,SW,234,0.0,2.0,41,0.00,,,0.00,weatherlink.com 1.10,2013-04-13 02:03:00,
2013-04-12 20:18:00,33.4,12.0,29.82,WSW,246,0.0,4.0,42,0.00,,,0.00,weatherlink.com 1.10,2013-04-13 02:18:00,
2013-04-12 20:33:00,33.2,12.0,29.83,WSW,248,2.0,4.0,42,0.00,,,0.00,weatherlink.com 1.10,2013-04-13 02:33:00,
2013-04-12 20:48:00,32.8,11.0,29.84,WSW,248,1.0,2.0,41,0.00,,,0.00,weatherlink.com 1.10,2013-04-13 02:48:00,
2013-04-12 21:03:00,32.4,12.0,29.85,WSW,248,0.0,1.0,43,0.00,,,0.00,weatherlink.com 1.10,2013-04-13 03:03:00,
2013-04-12 21:19:00,31.2,12.0,29.85,SE,144,0.0,3.0,46,0.00,,,0.00,weatherlink.com 1.10,2013-04-13 03:19:00,
2013-04-12 21:34:00,30.8,10.0,29.86,SE,146,0.0,1.0,42,0.00,,,0.00,weatherlink.com 1.10,2013-04-13 03:34:00,
2013-04-12 21:49:00,31.8,10.0,29.86,SSW,198,1.0,3.0,41,0.00,,,0.00,weatherlink.com 1.10,2013-04-13 03:49:00,
2013-04-12 22:05:00,33.5,11.0,29.86,South,188,0.0,3.0,39,0.00,,,0.00,weatherlink.com 1.10,2013-04-13 04:05:00,
2013-04-12 22:19:00,33.2,11.0,29.86,South,188,0.0,2.0,39,0.00,,,0.00,weatherlink.com 1.10,2013-04-13 04:19:00,
2013-04-12 22:34:00,31.7,11.0,29.85,SSE,150,0.0,3.0,42,0.00,,,0.00,weatherlink.com 1.10,2013-04-13 04:34:00,
2013-04-12 22:49:00,30.9,12.0,29.85,ESE,118,1.0,3.0,45,0.00,,,0.00,weatherlink.com 1.10,2013-04-13 04:49:00,
2013-04-12 23:05:00,30.5,12.0,29.84,SE,143,2.0,3.0,46,0.00,,,0.00,weatherlink.com 1.10,2013-04-13 05:05:00,
2013-04-12 23:19:00,30.6,12.0,29.83,South,188,0.0,3.0,46,0.00,,,0.00,weatherlink.com 1.10,2013-04-13 05:19:00,
2013-04-12 23:34:00,30.5,12.0,29.83,SSE,150,1.0,3.0,46,0.00,,,0.00,weatherlink.com 1.10,2013-04-13 05:34:00,
2013-04-12 23:48:00,30.1,13.0,29.84,ESE,106,1.0,6.0,50,0.00,,,0.00,weatherlink.com 1.10,2013-04-13 05:48:00,